TimeEDT,TemperatureF,Dew PointF,Humidity,Sea Level PressureIn,VisibilityMPH,Wind Direction,Wind SpeedMPH,Gust SpeedMPH,PrecipitationIn,Events,Conditions,WindDirDegrees,DateUTC
12:15 AM,46.4,44.6,93,30.26,10.0,Calm,Calm,-,N/A,,Clear,0,2012-10-12 04:15:00
12:35 AM,46.4,44.6,93,30.26,10.0,Calm,Calm,-,N/A,,Clear,0,2012-10-12 04:35:00
12:55 AM,46.4,44.6,93,30.27,10.0,Calm,Calm,-,N/A,,Clear,0,2012-10-12 04:55:00
1:15 AM,44.6,44.6,100,30.26,10.0,Calm,Calm,-,N/A,,Clear,0,2012-10-12 05:15:00
1:35 AM,44.6,44.6,100,30.26,7.0,Calm,Calm,-,N/A,,Clear,0,2012-10-12 05:35:00
1:55 AM,44.6,44.6,100,30.26,7.0,Calm,Calm,-,N/A,,Clear,0,2012-10-12 05:55:00
2:15 AM,44.6,42.8,93,30.25,7.0,Calm,Calm,-,N/A,,Clear,0,2012-10-12 06:15:00
2:35 AM,44.6,42.8,93,30.24,7.0,Calm,Calm,-,N/A,,Clear,0,2012-10-12 06:35:00
2:55 AM,44.6,42.8,93,30.24,7.0,Calm,Calm,-,N/A,,Clear,0,2012-10-12 06:55:00
3:15 AM,44.6,42.8,93,30.24,7.0,Calm,Calm,-,N/A,,Clear,0,2012-10-12 07:15:00
3:35 AM,44.6,42.8,93,30.24,7.0,Calm,Calm,-,N/A,,Clear,0,2012-10-12 07:35:00
3:55 AM,44.6,42.8,93,30.23,4.0,Calm,Calm,-,N/A,,Clear,0,2012-10-12 07:55:00
4:15 AM,42.8,42.8,100,30.22,5.0,Calm,Calm,-,N/A,,Clear,0,2012-10-12 08:15:00
4:35 AM,42.8,42.8,100,30.23,5.0,Calm,Calm,-,N/A,,Clear,0,2012-10-12 08:35:00
4:55 AM,44.6,42.8,93,30.23,5.0,Calm,Calm,-,N/A,,Clear,0,2012-10-12 08:55:00
5:15 AM,44.6,42.8,93,30.23,7.0,Calm,Calm,-,N/A,,Clear,0,2012-10-12 09:15:00
5:35 AM,42.8,42.8,100,30.23,7.0,Calm,Calm,-,N/A,,Clear,0,2012-10-12 09:35:00
5:55 AM,42.8,42.8,100,30.23,7.0,Calm,Calm,-,N/A,,Clear,0,2012-10-12 09:55:00
6:15 AM,42.8,42.8,100,30.23,7.0,Calm,Calm,-,N/A,,Clear,0,2012-10-12 10:15:00
6:35 AM,44.6,42.8,93,30.23,5.0,Calm,Calm,-,N/A,,Clear,0,2012-10-12 10:35:00
6:55 AM,42.8,42.8,100,30.24,7.0,Calm,Calm,-,N/A,,Clear,0,2012-10-12 10:55:00
7:15 AM,42.8,42.8,100,30.24,7.0,Calm,Calm,-,N/A,,Clear,0,2012-10-12 11:15:00
7:35 AM,42.8,42.8,100,30.25,7.0,Calm,Calm,-,N/A,,Clear,0,2012-10-12 11:35:00
7:55 AM,44.6,44.6,100,30.26,10.0,Calm,Calm,-,N/A,,Clear,0,2012-10-12 11:55:00
8:55 AM,50.0,48.2,94,30.27,10.0,Calm,Calm,-,N/A,,Clear,0,2012-10-12 12:55:00
9:55 AM,60.8,51.8,72,30.30,10.0,Calm,Calm,-,N/A,,Clear,0,2012-10-12 13:55:00
10:55 AM,62.6,51.8,68,30.28,10.0,Calm,Calm,-,N/A,,Clear,0,2012-10-12 14:55:00
11:55 AM,66.2,50.0,56,30.27,10.0,Calm,Calm,-,N/A,,Clear,0,2012-10-12 15:55:00
12:55 PM,66.2,48.2,52,30.26,10.0,Calm,Calm,-,N/A,,Clear,0,2012-10-12 16:55:00
2:55 PM,73.4,48.2,41,30.22,10.0,NNE,6.9,-,N/A,,Clear,20,2012-10-12 18:55:00
3:55 PM,75.2,48.2,38,30.23,10.0,NNE,5.8,-,N/A,,Clear,20,2012-10-12 19:55:00
4:55 PM,73.4,51.8,47,30.23,10.0,Calm,Calm,-,N/A,,Mostly Cloudy,0,2012-10-12 20:55:00
5:55 PM,71.6,55.4,57,30.23,10.0,Calm,Calm,-,N/A,,Mostly Cloudy,0,2012-10-12 21:55:00
8:55 PM,60.8,55.4,82,30.27,10.0,Calm,Calm,-,N/A,,Mostly Cloudy,0,2012-10-13 00:55:00
9:15 PM,57.2,53.6,88,30.30,10.0,Calm,Calm,-,N/A,,Scattered Clouds,0,2012-10-13 01:15:00
9:35 PM,55.4,51.8,88,30.31,10.0,Calm,Calm,-,N/A,,Clear,0,2012-10-13 01:35:00
9:55 PM,55.4,51.8,88,30.32,10.0,Calm,Calm,-,N/A,,Clear,0,2012-10-13 01:55:00
10:15 PM,55.4,53.6,94,30.33,10.0,Calm,Calm,-,N/A,,Mostly Cloudy,0,2012-10-13 02:15:00
10:35 PM,53.6,51.8,94,30.33,10.0,Calm,Calm,-,N/A,,Mostly Cloudy,0,2012-10-13 02:35:00
10:55 PM,53.6,51.8,94,30.34,10.0,Calm,Calm,-,N/A,,Scattered Clouds,0,2012-10-13 02:55:00
11:15 PM,53.6,51.8,94,30.34,10.0,Calm,Calm,-,N/A,,Clear,0,2012-10-13 03:15:00
11:55 PM,51.8,51.8,100,30.36,10.0,Calm,Calm,-,N/A,,Clear,0,2012-10-13 03:55:00